sensor_id;sensor_type;location;lat;lon;timestamp;P1;durP1;ratioP1;P2;durP2;ratioP2
2636;SDS011;1328;52.486;9.860;2022-07-29T00:00:08;89.97;;;72.83;;
2636;SDS011;1328;52.486;9.860;2022-07-29T00:02:35;128.37;;;116.57;;
2636;SDS011;1328;52.486;9.860;2022-07-29T00:05:01;128.00;;;116.10;;
2636;SDS011;1328;52.486;9.860;2022-07-29T00:07:27;107.77;;;97.33;;
2636;SDS011;1328;52.486;9.860;2022-07-29T00:09:53;84.67;;;65.87;;
2636;SDS011;1328;52.486;9.860;2022-07-29T00:12:20;81.97;;;61.73;;
2636;SDS011;1328;52.486;9.860;2022-07-29T00:14:47;91.43;;;81.70;;
2636;SDS011;1328;52.486;9.860;2022-07-29T00:17:13;88.80;;;70.10;;
2636;SDS011;1328;52.486;9.860;2022-07-29T00:19:39;97.70;;;87.47;;
2636;SDS011;1328;52.486;9.860;2022-07-29T00:22:05;132.50;;;120.67;;
2636;SDS011;1328;52.486;9.860;2022-07-29T00:24:31;95.57;;;85.60;;
2636;SDS011;1328;52.486;9.860;2022-07-29T00:26:57;95.40;;;85.20;;
2636;SDS011;1328;52.486;9.860;2022-07-29T00:29:23;105.33;;;94.57;;
2636;SDS011;1328;52.486;9.860;2022-07-29T00:31:49;113.40;;;102.27;;
2636;SDS011;1328;52.486;9.860;2022-07-29T00:34:16;98.83;;;88.67;;
2636;SDS011;1328;52.486;9.860;2022-07-29T00:37:17;126.50;;;114.90;;
2636;SDS011;1328;52.486;9.860;2022-07-29T00:39:43;146.10;;;134.00;;
2636;SDS011;1328;52.486;9.860;2022-07-29T00:42:09;121.40;;;110.43;;
2636;SDS011;1328;52.486;9.860;2022-07-29T00:44:36;141.30;;;128.97;;
2636;SDS011;1328;52.486;9.860;2022-07-29T00:47:02;157.40;;;144.70;;
2636;SDS011;1328;52.486;9.860;2022-07-29T00:49:28;177.47;;;164.13;;
2636;SDS011;1328;52.486;9.860;2022-07-29T00:51:54;172.10;;;158.73;;
2636;SDS011;1328;52.486;9.860;2022-07-29T00:54:20;178.47;;;164.90;;
2636;SDS011;1328;52.486;9.860;2022-07-29T00:56:46;187.33;;;172.57;;
2636;SDS011;1328;52.486;9.860;2022-07-29T00:59:12;165.27;;;152.40;;
2636;SDS011;1328;52.486;9.860;2022-07-29T01:01:38;183.77;;;170.20;;
2636;SDS011;1328;52.486;9.860;2022-07-29T01:04:05;175.23;;;162.27;;
2636;SDS011;1328;52.486;9.860;2022-07-29T01:06:31;161.13;;;148.07;;
2636;SDS011;1328;52.486;9.860;2022-07-29T01:08:58;144.90;;;132.60;;
2636;SDS011;1328;52.486;9.860;2022-07-29T01:11:24;144.80;;;132.23;;
2636;SDS011;1328;52.486;9.860;2022-07-29T01:13:51;126.47;;;114.63;;
2636;SDS011;1328;52.486;9.860;2022-07-29T01:16:37;111.23;;;99.80;;
2636;SDS011;1328;52.486;9.860;2022-07-29T01:19:07;121.83;;;110.37;;
2636;SDS011;1328;52.486;9.860;2022-07-29T01:31:48;110.80;;;100.20;;
2636;SDS011;1328;52.486;9.860;2022-07-29T01:34:18;110.00;;;99.30;;
2636;SDS011;1328;52.486;9.860;2022-07-29T01:36:48;112.80;;;101.90;;
2636;SDS011;1328;52.486;9.860;2022-07-29T01:39:22;113.50;;;102.50;;
2636;SDS011;1328;52.486;9.860;2022-07-29T01:41:56;109.27;;;98.67;;
2636;SDS011;1328;52.486;9.860;2022-07-29T01:44:26;90.03;;;80.10;;
2636;SDS011;1328;52.486;9.860;2022-07-29T01:46:56;93.17;;;76.90;;
2636;SDS011;1328;52.486;9.860;2022-07-29T01:49:25;105.00;;;93.83;;
2636;SDS011;1328;52.486;9.860;2022-07-29T01:51:53;101.13;;;90.53;;
2636;SDS011;1328;52.486;9.860;2022-07-29T01:54:34;94.97;;;82.07;;
2636;SDS011;1328;52.486;9.860;2022-07-29T01:57:01;86.73;;;63.23;;
2636;SDS011;1328;52.486;9.860;2022-07-29T01:59:27;93.17;;;82.90;;
2636;SDS011;1328;52.486;9.860;2022-07-29T02:01:54;89.10;;;77.63;;
2636;SDS011;1328;52.486;9.860;2022-07-29T02:04:22;84.53;;;66.33;;
2636;SDS011;1328;52.486;9.860;2022-07-29T02:06:49;92.30;;;78.97;;
2636;SDS011;1328;52.486;9.860;2022-07-29T02:09:16;156.93;;;143.57;;
2636;SDS011;1328;52.486;9.860;2022-07-29T02:11:47;297.27;;;278.67;;
2636;SDS011;1328;52.486;9.860;2022-07-29T02:14:13;337.07;;;316.60;;
2636;SDS011;1328;52.486;9.860;2022-07-29T02:16:40;343.60;;;322.50;;
2636;SDS011;1328;52.486;9.860;2022-07-29T02:19:06;406.20;;;382.43;;
2636;SDS011;1328;52.486;9.860;2022-07-29T02:21:33;626.77;;;591.03;;
2636;SDS011;1328;52.486;9.860;2022-07-29T02:24:01;623.17;;;588.23;;
2636;SDS011;1328;52.486;9.860;2022-07-29T02:26:28;492.10;;;463.73;;
2636;SDS011;1328;52.486;9.860;2022-07-29T02:28:55;639.63;;;604.17;;
2636;SDS011;1328;52.486;9.860;2022-07-29T02:31:22;665.00;;;628.30;;
2636;SDS011;1328;52.486;9.860;2022-07-29T02:33:49;634.00;;;598.60;;
2636;SDS011;1328;52.486;9.860;2022-07-29T02:36:16;647.63;;;612.10;;
2636;SDS011;1328;52.486;9.860;2022-07-29T02:38:42;665.77;;;630.20;;
2636;SDS011;1328;52.486;9.860;2022-07-29T02:42:16;675.93;;;639.97;;
2636;SDS011;1328;52.486;9.860;2022-07-29T02:44:12;658.83;;;624.73;;
2636;SDS011;1328;52.486;9.860;2022-07-29T02:46:41;713.43;;;675.77;;
2636;SDS011;1328;52.486;9.860;2022-07-29T02:52:03;663.53;;;629.27;;
2636;SDS011;1328;52.486;9.860;2022-07-29T02:54:37;695.50;;;659.90;;
2636;SDS011;1328;52.486;9.860;2022-07-29T02:57:04;718.80;;;680.57;;
2636;SDS011;1328;52.486;9.860;2022-07-29T02:59:32;706.70;;;669.70;;
2636;SDS011;1328;52.486;9.860;2022-07-29T03:01:59;712.27;;;673.50;;
2636;SDS011;1328;52.486;9.860;2022-07-29T03:04:27;680.40;;;644.43;;
2636;SDS011;1328;52.486;9.860;2022-07-29T03:06:55;754.60;;;713.67;;
2636;SDS011;1328;52.486;9.860;2022-07-29T03:09:22;758.27;;;716.93;;
2636;SDS011;1328;52.486;9.860;2022-07-29T03:11:48;736.57;;;695.53;;
2636;SDS011;1328;52.486;9.860;2022-07-29T03:14:15;680.40;;;644.97;;
2636;SDS011;1328;52.486;9.860;2022-07-29T03:16:42;766.23;;;723.87;;
2636;SDS011;1328;52.486;9.860;2022-07-29T03:19:08;765.53;;;723.23;;
2636;SDS011;1328;52.486;9.860;2022-07-29T03:21:34;824.77;;;778.10;;
2636;SDS011;1328;52.486;9.860;2022-07-29T03:24:00;783.93;;;739.80;;
2636;SDS011;1328;52.486;9.860;2022-07-29T03:26:26;822.33;;;775.97;;
2636;SDS011;1328;52.486;9.860;2022-07-29T03:28:52;860.70;;;810.00;;
2636;SDS011;1328;52.486;9.860;2022-07-29T03:31:18;861.13;;;811.40;;
2636;SDS011;1328;52.486;9.860;2022-07-29T03:33:44;857.53;;;808.37;;
2636;SDS011;1328;52.486;9.860;2022-07-29T03:36:10;886.97;;;835.83;;
2636;SDS011;1328;52.486;9.860;2022-07-29T03:38:36;864.03;;;814.93;;
2636;SDS011;1328;52.486;9.860;2022-07-29T03:41:05;783.70;;;739.67;;
2636;SDS011;1328;52.486;9.860;2022-07-29T03:43:34;784.00;;;740.20;;
2636;SDS011;1328;52.486;9.860;2022-07-29T03:46:01;842.33;;;795.37;;
2636;SDS011;1328;52.486;9.860;2022-07-29T03:48:29;765.50;;;723.33;;
2636;SDS011;1328;52.486;9.860;2022-07-29T03:50:58;789.23;;;744.83;;
2636;SDS011;1328;52.486;9.860;2022-07-29T03:53:24;748.70;;;708.10;;
2636;SDS011;1328;52.486;9.860;2022-07-29T03:55:52;710.60;;;672.80;;
2636;SDS011;1328;52.486;9.860;2022-07-29T03:58:19;756.37;;;715.27;;
2636;SDS011;1328;52.486;9.860;2022-07-29T04:00:46;675.80;;;640.70;;
2636;SDS011;1328;52.486;9.860;2022-07-29T04:03:12;686.43;;;650.90;;
2636;SDS011;1328;52.486;9.860;2022-07-29T04:05:38;679.07;;;642.83;;
2636;SDS011;1328;52.486;9.860;2022-07-29T04:08:04;695.43;;;658.27;;
2636;SDS011;1328;52.486;9.860;2022-07-29T04:10:30;721.87;;;684.40;;
2636;SDS011;1328;52.486;9.860;2022-07-29T04:12:56;707.30;;;670.03;;
2636;SDS011;1328;52.486;9.860;2022-07-29T04:15:22;690.10;;;653.90;;
2636;SDS011;1328;52.486;9.860;2022-07-29T04:17:48;719.90;;;682.30;;
2636;SDS011;1328;52.486;9.860;2022-07-29T04:20:14;693.40;;;657.33;;
2636;SDS011;1328;52.486;9.860;2022-07-29T04:22:41;717.80;;;679.90;;
2636;SDS011;1328;52.486;9.860;2022-07-29T04:25:07;717.70;;;679.67;;
2636;SDS011;1328;52.486;9.860;2022-07-29T04:27:33;709.57;;;672.47;;
2636;SDS011;1328;52.486;9.860;2022-07-29T04:29:59;728.07;;;689.40;;
2636;SDS011;1328;52.486;9.860;2022-07-29T04:32:25;684.80;;;649.73;;
2636;SDS011;1328;52.486;9.860;2022-07-29T04:34:51;703.17;;;666.20;;
2636;SDS011;1328;52.486;9.860;2022-07-29T04:37:18;723.00;;;683.43;;
2636;SDS011;1328;52.486;9.860;2022-07-29T04:39:44;700.70;;;662.93;;
2636;SDS011;1328;52.486;9.860;2022-07-29T04:42:10;671.47;;;636.20;;
2636;SDS011;1328;52.486;9.860;2022-07-29T04:44:36;703.23;;;666.23;;
2636;SDS011;1328;52.486;9.860;2022-07-29T04:47:02;698.97;;;663.13;;
2636;SDS011;1328;52.486;9.860;2022-07-29T04:49:28;699.13;;;661.67;;
2636;SDS011;1328;52.486;9.860;2022-07-29T04:51:54;700.87;;;663.67;;
2636;SDS011;1328;52.486;9.860;2022-07-29T04:54:20;708.53;;;670.97;;
2636;SDS011;1328;52.486;9.860;2022-07-29T04:56:46;738.13;;;698.07;;
2636;SDS011;1328;52.486;9.860;2022-07-29T04:59:12;693.60;;;656.83;;
2636;SDS011;1328;52.486;9.860;2022-07-29T05:01:38;698.93;;;662.20;;
2636;SDS011;1328;52.486;9.860;2022-07-29T05:04:04;731.90;;;693.57;;
2636;SDS011;1328;52.486;9.860;2022-07-29T05:06:30;730.33;;;691.93;;
2636;SDS011;1328;52.486;9.860;2022-07-29T05:08:57;739.57;;;699.57;;
2636;SDS011;1328;52.486;9.860;2022-07-29T05:11:23;713.00;;;675.27;;
2636;SDS011;1328;52.486;9.860;2022-07-29T05:13:49;731.47;;;692.23;;
2636;SDS011;1328;52.486;9.860;2022-07-29T05:16:15;688.47;;;652.73;;
2636;SDS011;1328;52.486;9.860;2022-07-29T05:18:41;713.53;;;676.23;;
2636;SDS011;1328;52.486;9.860;2022-07-29T05:21:07;715.67;;;676.23;;
2636;SDS011;1328;52.486;9.860;2022-07-29T05:23:33;607.03;;;574.00;;
2636;SDS011;1328;52.486;9.860;2022-07-29T05:25:59;758.67;;;718.67;;
2636;SDS011;1328;52.486;9.860;2022-07-29T05:28:25;760.10;;;716.93;;
2636;SDS011;1328;52.486;9.860;2022-07-29T05:30:51;820.87;;;775.17;;
2636;SDS011;1328;52.486;9.860;2022-07-29T05:33:17;819.03;;;772.83;;
2636;SDS011;1328;52.486;9.860;2022-07-29T05:35:43;828.03;;;782.13;;
2636;SDS011;1328;52.486;9.860;2022-07-29T05:38:09;800.07;;;755.83;;
2636;SDS011;1328;52.486;9.860;2022-07-29T05:40:35;868.27;;;817.37;;
2636;SDS011;1328;52.486;9.860;2022-07-29T05:43:02;819.77;;;774.30;;
2636;SDS011;1328;52.486;9.860;2022-07-29T05:45:28;862.47;;;813.67;;
2636;SDS011;1328;52.486;9.860;2022-07-29T05:47:54;897.90;;;844.27;;
2636;SDS011;1328;52.486;9.860;2022-07-29T05:50:20;912.63;;;859.60;;
2636;SDS011;1328;52.486;9.860;2022-07-29T05:52:46;959.37;;;897.43;;
2636;SDS011;1328;52.486;9.860;2022-07-29T05:55:12;963.33;;;902.77;;
2636;SDS011;1328;52.486;9.860;2022-07-29T05:57:38;1021.90;;;955.87;;
2636;SDS011;1328;52.486;9.860;2022-07-29T06:00:04;1013.47;;;948.47;;
2636;SDS011;1328;52.486;9.860;2022-07-29T06:02:30;1046.10;;;976.80;;
2636;SDS011;1328;52.486;9.860;2022-07-29T06:04:56;1013.33;;;946.33;;
2636;SDS011;1328;52.486;9.860;2022-07-29T06:07:22;914.37;;;855.63;;
2636;SDS011;1328;52.486;9.860;2022-07-29T06:09:48;748.33;;;705.97;;
2636;SDS011;1328;52.486;9.860;2022-07-29T06:12:15;807.10;;;760.63;;
2636;SDS011;1328;52.486;9.860;2022-07-29T06:14:41;809.20;;;763.57;;
2636;SDS011;1328;52.486;9.860;2022-07-29T06:17:07;817.47;;;770.00;;
2636;SDS011;1328;52.486;9.860;2022-07-29T06:19:36;928.73;;;871.33;;
2636;SDS011;1328;52.486;9.860;2022-07-29T06:22:02;822.23;;;771.90;;
2636;SDS011;1328;52.486;9.860;2022-07-29T06:24:28;896.07;;;842.80;;
2636;SDS011;1328;52.486;9.860;2022-07-29T06:26:54;896.57;;;843.03;;
2636;SDS011;1328;52.486;9.860;2022-07-29T06:29:20;888.40;;;834.53;;
2636;SDS011;1328;52.486;9.860;2022-07-29T06:31:47;909.10;;;854.30;;
2636;SDS011;1328;52.486;9.860;2022-07-29T06:34:13;827.93;;;779.93;;
2636;SDS011;1328;52.486;9.860;2022-07-29T06:36:39;920.10;;;864.03;;
2636;SDS011;1328;52.486;9.860;2022-07-29T06:39:08;134.67;;;122.27;;
2636;SDS011;1328;52.486;9.860;2022-07-29T06:41:34;160.23;;;146.53;;
2636;SDS011;1328;52.486;9.860;2022-07-29T06:44:00;207.67;;;191.47;;
2636;SDS011;1328;52.486;9.860;2022-07-29T06:46:26;190.67;;;175.63;;
2636;SDS011;1328;52.486;9.860;2022-07-29T06:48:52;334.83;;;314.07;;
2636;SDS011;1328;52.486;9.860;2022-07-29T06:51:19;684.40;;;643.30;;
2636;SDS011;1328;52.486;9.860;2022-07-29T06:53:45;614.30;;;577.53;;
2636;SDS011;1328;52.486;9.860;2022-07-29T06:56:11;484.07;;;455.77;;
2636;SDS011;1328;52.486;9.860;2022-07-29T06:58:38;642.13;;;603.43;;
2636;SDS011;1328;52.486;9.860;2022-07-29T07:01:05;477.90;;;449.23;;
2636;SDS011;1328;52.486;9.860;2022-07-29T07:03:31;618.47;;;582.53;;
2636;SDS011;1328;52.486;9.860;2022-07-29T07:05:57;575.37;;;541.77;;
2636;SDS011;1328;52.486;9.860;2022-07-29T07:08:23;493.23;;;455.90;;
2636;SDS011;1328;52.486;9.860;2022-07-29T07:10:50;596.20;;;562.10;;
2636;SDS011;1328;52.486;9.860;2022-07-29T07:13:16;488.23;;;459.70;;
2636;SDS011;1328;52.486;9.860;2022-07-29T07:15:43;560.60;;;528.20;;
2636;SDS011;1328;52.486;9.860;2022-07-29T07:18:10;189.67;;;173.87;;
2636;SDS011;1328;52.486;9.860;2022-07-29T07:20:36;110.97;;;99.47;;
2636;SDS011;1328;52.486;9.860;2022-07-29T07:23:02;286.10;;;266.57;;
2636;SDS011;1328;52.486;9.860;2022-07-29T07:25:29;111.50;;;91.47;;
2636;SDS011;1328;52.486;9.860;2022-07-29T07:27:55;149.23;;;136.37;;
2636;SDS011;1328;52.486;9.860;2022-07-29T07:30:21;112.83;;;101.47;;
2636;SDS011;1328;52.486;9.860;2022-07-29T07:32:47;174.03;;;159.27;;
2636;SDS011;1328;52.486;9.860;2022-07-29T07:35:14;115.33;;;103.73;;
2636;SDS011;1328;52.486;9.860;2022-07-29T07:37:40;103.00;;;77.90;;
2636;SDS011;1328;52.486;9.860;2022-07-29T07:40:06;98.80;;;81.37;;
2636;SDS011;1328;52.486;9.860;2022-07-29T07:42:33;158.20;;;145.30;;
2636;SDS011;1328;52.486;9.860;2022-07-29T07:44:59;123.53;;;111.60;;
2636;SDS011;1328;52.486;9.860;2022-07-29T07:47:25;116.33;;;104.63;;
2636;SDS011;1328;52.486;9.860;2022-07-29T07:49:51;112.20;;;100.90;;
2636;SDS011;1328;52.486;9.860;2022-07-29T07:52:19;129.87;;;117.73;;
2636;SDS011;1328;52.486;9.860;2022-07-29T07:54:45;127.00;;;115.30;;
2636;SDS011;1328;52.486;9.860;2022-07-29T07:57:11;162.13;;;148.03;;
2636;SDS011;1328;52.486;9.860;2022-07-29T07:59:38;288.43;;;269.73;;
2636;SDS011;1328;52.486;9.860;2022-07-29T08:02:04;495.37;;;468.87;;
2636;SDS011;1328;52.486;9.860;2022-07-29T08:04:30;195.33;;;180.40;;
2636;SDS011;1328;52.486;9.860;2022-07-29T08:06:56;323.83;;;303.67;;
2636;SDS011;1328;52.486;9.860;2022-07-29T08:09:23;481.07;;;454.60;;
2636;SDS011;1328;52.486;9.860;2022-07-29T08:11:50;475.90;;;449.40;;
2636;SDS011;1328;52.486;9.860;2022-07-29T08:14:16;508.67;;;481.07;;
2636;SDS011;1328;52.486;9.860;2022-07-29T08:16:42;429.43;;;405.00;;
2636;SDS011;1328;52.486;9.860;2022-07-29T08:19:09;350.60;;;329.57;;
2636;SDS011;1328;52.486;9.860;2022-07-29T08:21:35;267.37;;;249.40;;
2636;SDS011;1328;52.486;9.860;2022-07-29T08:24:01;153.57;;;140.33;;
2636;SDS011;1328;52.486;9.860;2022-07-29T08:26:46;454.47;;;429.07;;
2636;SDS011;1328;52.486;9.860;2022-07-29T08:29:12;253.90;;;237.17;;
2636;SDS011;1328;52.486;9.860;2022-07-29T08:31:38;155.73;;;142.30;;
2636;SDS011;1328;52.486;9.860;2022-07-29T08:34:05;97.80;;;85.83;;
2636;SDS011;1328;52.486;9.860;2022-07-29T08:36:31;146.63;;;133.53;;
2636;SDS011;1328;52.486;9.860;2022-07-29T08:38:58;318.97;;;298.80;;
2636;SDS011;1328;52.486;9.860;2022-07-29T08:41:24;334.90;;;314.40;;
2636;SDS011;1328;52.486;9.860;2022-07-29T08:43:50;488.73;;;461.43;;
2636;SDS011;1328;52.486;9.860;2022-07-29T08:46:17;229.60;;;213.23;;
2636;SDS011;1328;52.486;9.860;2022-07-29T08:48:44;349.23;;;328.60;;
2636;SDS011;1328;52.486;9.860;2022-07-29T08:51:17;444.63;;;419.80;;
2636;SDS011;1328;52.486;9.860;2022-07-29T08:53:44;432.27;;;407.37;;
2636;SDS011;1328;52.486;9.860;2022-07-29T08:56:12;321.07;;;301.23;;
2636;SDS011;1328;52.486;9.860;2022-07-29T08:58:39;435.57;;;410.63;;
2636;SDS011;1328;52.486;9.860;2022-07-29T09:01:05;353.17;;;332.37;;
2636;SDS011;1328;52.486;9.860;2022-07-29T09:03:32;150.60;;;137.77;;
2636;SDS011;1328;52.486;9.860;2022-07-29T09:05:59;154.20;;;141.23;;
2636;SDS011;1328;52.486;9.860;2022-07-29T09:08:25;160.93;;;147.90;;
2636;SDS011;1328;52.486;9.860;2022-07-29T09:10:52;176.10;;;162.43;;
2636;SDS011;1328;52.486;9.860;2022-07-29T09:13:18;490.00;;;463.43;;
2636;SDS011;1328;52.486;9.860;2022-07-29T09:15:44;399.20;;;376.33;;
2636;SDS011;1328;52.486;9.860;2022-07-29T09:18:10;323.57;;;303.37;;
2636;SDS011;1328;52.486;9.860;2022-07-29T09:20:36;232.83;;;216.17;;
2636;SDS011;1328;52.486;9.860;2022-07-29T09:23:21;396.20;;;373.53;;
2636;SDS011;1328;52.486;9.860;2022-07-29T09:25:48;201.40;;;186.63;;
2636;SDS011;1328;52.486;9.860;2022-07-29T09:28:15;171.60;;;157.43;;
2636;SDS011;1328;52.486;9.860;2022-07-29T09:30:57;168.97;;;155.13;;
2636;SDS011;1328;52.486;9.860;2022-07-29T09:33:25;156.87;;;143.87;;
2636;SDS011;1328;52.486;9.860;2022-07-29T09:36:02;169.53;;;155.53;;
2636;SDS011;1328;52.486;9.860;2022-07-29T09:38:28;283.60;;;264.70;;
2636;SDS011;1328;52.486;9.860;2022-07-29T09:41:01;224.20;;;207.50;;
2636;SDS011;1328;52.486;9.860;2022-07-29T09:43:28;450.70;;;426.70;;
2636;SDS011;1328;52.486;9.860;2022-07-29T09:45:54;371.17;;;349.60;;
2636;SDS011;1328;52.486;9.860;2022-07-29T09:48:21;253.77;;;235.43;;
2636;SDS011;1328;52.486;9.860;2022-07-29T09:50:47;300.63;;;281.23;;
2636;SDS011;1328;52.486;9.860;2022-07-29T09:53:36;360.83;;;339.70;;
2636;SDS011;1328;52.486;9.860;2022-07-29T09:56:03;376.70;;;355.73;;
2636;SDS011;1328;52.486;9.860;2022-07-29T09:58:29;377.10;;;355.53;;
2636;SDS011;1328;52.486;9.860;2022-07-29T10:00:55;424.60;;;401.20;;
2636;SDS011;1328;52.486;9.860;2022-07-29T10:03:22;228.97;;;212.50;;
2636;SDS011;1328;52.486;9.860;2022-07-29T10:06:04;290.47;;;271.37;;
2636;SDS011;1328;52.486;9.860;2022-07-29T10:08:31;420.90;;;398.00;;
2636;SDS011;1328;52.486;9.860;2022-07-29T10:11:10;176.63;;;162.13;;
2636;SDS011;1328;52.486;9.860;2022-07-29T10:13:36;378.97;;;357.47;;
2636;SDS011;1328;52.486;9.860;2022-07-29T10:16:03;470.83;;;445.57;;
2636;SDS011;1328;52.486;9.860;2022-07-29T10:18:30;371.60;;;349.70;;
2636;SDS011;1328;52.486;9.860;2022-07-29T10:20:56;411.33;;;388.57;;
2636;SDS011;1328;52.486;9.860;2022-07-29T10:23:22;459.23;;;434.53;;
2636;SDS011;1328;52.486;9.860;2022-07-29T10:25:50;457.23;;;432.97;;
2636;SDS011;1328;52.486;9.860;2022-07-29T10:28:16;282.30;;;263.87;;
2636;SDS011;1328;52.486;9.860;2022-07-29T10:30:42;286.43;;;267.73;;
2636;SDS011;1328;52.486;9.860;2022-07-29T10:43:58;271.13;;;252.43;;
2636;SDS011;1328;52.486;9.860;2022-07-29T10:46:25;534.90;;;504.70;;
2636;SDS011;1328;52.486;9.860;2022-07-29T10:59:48;416.63;;;391.90;;
2636;SDS011;1328;52.486;9.860;2022-07-29T11:07:31;259.67;;;241.47;;
2636;SDS011;1328;52.486;9.860;2022-07-29T11:15:04;372.47;;;350.97;;
2636;SDS011;1328;52.486;9.860;2022-07-29T11:18:16;335.07;;;314.63;;
2636;SDS011;1328;52.486;9.860;2022-07-29T11:20:30;307.00;;;287.67;;
2636;SDS011;1328;52.486;9.860;2022-07-29T11:22:56;258.33;;;240.53;;
2636;SDS011;1328;52.486;9.860;2022-07-29T11:25:22;425.73;;;400.57;;
2636;SDS011;1328;52.486;9.860;2022-07-29T11:27:49;520.43;;;492.03;;
2636;SDS011;1328;52.486;9.860;2022-07-29T11:30:15;552.00;;;521.00;;
2636;SDS011;1328;52.486;9.860;2022-07-29T11:32:42;542.40;;;511.83;;
2636;SDS011;1328;52.486;9.860;2022-07-29T11:35:18;601.67;;;566.97;;
2636;SDS011;1328;52.486;9.860;2022-07-29T11:37:46;627.53;;;591.70;;
2636;SDS011;1328;52.486;9.860;2022-07-29T11:40:14;581.40;;;547.70;;
2636;SDS011;1328;52.486;9.860;2022-07-29T11:42:44;589.70;;;556.50;;
2636;SDS011;1328;52.486;9.860;2022-07-29T11:45:12;624.23;;;588.23;;
2636;SDS011;1328;52.486;9.860;2022-07-29T11:47:47;684.63;;;645.20;;
2636;SDS011;1328;52.486;9.860;2022-07-29T11:50:17;588.00;;;554.57;;
2636;SDS011;1328;52.486;9.860;2022-07-29T11:52:44;540.97;;;509.80;;
2636;SDS011;1328;52.486;9.860;2022-07-29T11:57:47;758.73;;;713.43;;
2636;SDS011;1328;52.486;9.860;2022-07-29T12:00:20;791.50;;;744.60;;
2636;SDS011;1328;52.486;9.860;2022-07-29T12:02:47;895.20;;;840.73;;
2636;SDS011;1328;52.486;9.860;2022-07-29T12:05:13;976.40;;;914.83;;
2636;SDS011;1328;52.486;9.860;2022-07-29T12:07:40;699.63;;;659.20;;
2636;SDS011;1328;52.486;9.860;2022-07-29T12:10:07;610.17;;;574.30;;
2636;SDS011;1328;52.486;9.860;2022-07-29T12:12:34;305.30;;;285.13;;
2636;SDS011;1328;52.486;9.860;2022-07-29T12:15:14;255.63;;;237.10;;
2636;SDS011;1328;52.486;9.860;2022-07-29T12:17:42;146.43;;;132.70;;
2636;SDS011;1328;52.486;9.860;2022-07-29T12:20:08;167.87;;;153.37;;
2636;SDS011;1328;52.486;9.860;2022-07-29T12:22:35;275.00;;;254.73;;
2636;SDS011;1328;52.486;9.860;2022-07-29T12:25:12;176.50;;;161.20;;
2636;SDS011;1328;52.486;9.860;2022-07-29T12:27:44;203.83;;;187.70;;
2636;SDS011;1328;52.486;9.860;2022-07-29T12:30:12;208.17;;;191.87;;
2636;SDS011;1328;52.486;9.860;2022-07-29T12:32:39;273.03;;;253.50;;
2636;SDS011;1328;52.486;9.860;2022-07-29T12:35:07;213.63;;;197.37;;
2636;SDS011;1328;52.486;9.860;2022-07-29T12:37:34;279.43;;;259.37;;
2636;SDS011;1328;52.486;9.860;2022-07-29T12:40:02;162.10;;;147.93;;
2636;SDS011;1328;52.486;9.860;2022-07-29T12:42:29;204.40;;;188.10;;
2636;SDS011;1328;52.486;9.860;2022-07-29T12:44:56;184.70;;;168.80;;
2636;SDS011;1328;52.486;9.860;2022-07-29T12:47:22;197.37;;;181.57;;
2636;SDS011;1328;52.486;9.860;2022-07-29T12:49:49;237.63;;;219.80;;
2636;SDS011;1328;52.486;9.860;2022-07-29T12:54:50;203.07;;;186.90;;
2636;SDS011;1328;52.486;9.860;2022-07-29T12:57:16;315.83;;;294.97;;
2636;SDS011;1328;52.486;9.860;2022-07-29T12:59:42;282.40;;;263.03;;
2636;SDS011;1328;52.486;9.860;2022-07-29T13:02:20;265.73;;;247.93;;
2636;SDS011;1328;52.486;9.860;2022-07-29T13:04:55;193.43;;;177.43;;
2636;SDS011;1328;52.486;9.860;2022-07-29T13:07:28;192.10;;;176.07;;
2636;SDS011;1328;52.486;9.860;2022-07-29T13:12:36;235.67;;;217.77;;
2636;SDS011;1328;52.486;9.860;2022-07-29T13:15:15;491.87;;;461.33;;
2636;SDS011;1328;52.486;9.860;2022-07-29T13:17:42;417.97;;;391.83;;
2636;SDS011;1328;52.486;9.860;2022-07-29T13:20:11;462.60;;;432.93;;
2636;SDS011;1328;52.486;9.860;2022-07-29T13:22:38;468.47;;;438.60;;
2636;SDS011;1328;52.486;9.860;2022-07-29T13:25:05;483.00;;;452.40;;
2636;SDS011;1328;52.486;9.860;2022-07-29T13:27:32;283.10;;;262.60;;
2636;SDS011;1328;52.486;9.860;2022-07-29T13:30:00;234.90;;;216.83;;
2636;SDS011;1328;52.486;9.860;2022-07-29T13:32:27;196.50;;;180.13;;
2636;SDS011;1328;52.486;9.860;2022-07-29T13:34:53;378.53;;;353.80;;
2636;SDS011;1328;52.486;9.860;2022-07-29T13:37:19;325.73;;;302.53;;
2636;SDS011;1328;52.486;9.860;2022-07-29T13:39:45;425.30;;;397.80;;
2636;SDS011;1328;52.486;9.860;2022-07-29T13:42:12;708.27;;;663.17;;
2636;SDS011;1328;52.486;9.860;2022-07-29T13:44:39;284.97;;;264.67;;
2636;SDS011;1328;52.486;9.860;2022-07-29T13:47:05;648.13;;;607.23;;
2636;SDS011;1328;52.486;9.860;2022-07-29T13:49:31;462.67;;;433.10;;
2636;SDS011;1328;52.486;9.860;2022-07-29T13:51:57;824.13;;;773.03;;
2636;SDS011;1328;52.486;9.860;2022-07-29T13:54:23;809.77;;;760.07;;
2636;SDS011;1328;52.486;9.860;2022-07-29T13:56:51;796.33;;;748.23;;
2636;SDS011;1328;52.486;9.860;2022-07-29T13:59:17;884.10;;;830.07;;
2636;SDS011;1328;52.486;9.860;2022-07-29T14:01:43;836.23;;;785.33;;
2636;SDS011;1328;52.486;9.860;2022-07-29T14:04:10;796.60;;;749.80;;
2636;SDS011;1328;52.486;9.860;2022-07-29T14:06:37;886.80;;;832.17;;
2636;SDS011;1328;52.486;9.860;2022-07-29T14:09:03;858.73;;;806.67;;
2636;SDS011;1328;52.486;9.860;2022-07-29T14:11:31;819.70;;;772.10;;
2636;SDS011;1328;52.486;9.860;2022-07-29T14:13:57;703.83;;;663.33;;
2636;SDS011;1328;52.486;9.860;2022-07-29T14:16:23;746.30;;;702.77;;
2636;SDS011;1328;52.486;9.860;2022-07-29T14:18:49;664.27;;;627.07;;
2636;SDS011;1328;52.486;9.860;2022-07-29T14:21:15;892.47;;;837.53;;
2636;SDS011;1328;52.486;9.860;2022-07-29T14:23:41;829.63;;;781.07;;
2636;SDS011;1328;52.486;9.860;2022-07-29T14:26:08;709.97;;;671.83;;
2636;SDS011;1328;52.486;9.860;2022-07-29T14:28:34;720.83;;;680.93;;
2636;SDS011;1328;52.486;9.860;2022-07-29T14:31:00;723.73;;;683.83;;
2636;SDS011;1328;52.486;9.860;2022-07-29T14:33:26;743.83;;;702.87;;
2636;SDS011;1328;52.486;9.860;2022-07-29T14:35:52;749.77;;;707.87;;
2636;SDS011;1328;52.486;9.860;2022-07-29T14:38:18;612.90;;;579.43;;
2636;SDS011;1328;52.486;9.860;2022-07-29T14:40:44;594.77;;;561.17;;
2636;SDS011;1328;52.486;9.860;2022-07-29T14:43:11;661.33;;;624.63;;
2636;SDS011;1328;52.486;9.860;2022-07-29T14:45:38;625.47;;;591.00;;
2636;SDS011;1328;52.486;9.860;2022-07-29T14:48:04;467.73;;;441.57;;
2636;SDS011;1328;52.486;9.860;2022-07-29T14:50:30;508.70;;;480.27;;
2636;SDS011;1328;52.486;9.860;2022-07-29T14:52:56;579.47;;;547.30;;
2636;SDS011;1328;52.486;9.860;2022-07-29T14:55:22;357.53;;;335.57;;
2636;SDS011;1328;52.486;9.860;2022-07-29T14:57:49;621.40;;;586.57;;
2636;SDS011;1328;52.486;9.860;2022-07-29T15:00:15;652.40;;;614.73;;
2636;SDS011;1328;52.486;9.860;2022-07-29T15:02:41;374.37;;;351.43;;
2636;SDS011;1328;52.486;9.860;2022-07-29T15:05:07;599.30;;;565.20;;
2636;SDS011;1328;52.486;9.860;2022-07-29T15:07:33;864.30;;;812.73;;
2636;SDS011;1328;52.486;9.860;2022-07-29T15:09:59;861.87;;;810.80;;
2636;SDS011;1328;52.486;9.860;2022-07-29T15:12:25;825.00;;;775.67;;
2636;SDS011;1328;52.486;9.860;2022-07-29T15:14:51;836.10;;;787.07;;
2636;SDS011;1328;52.486;9.860;2022-07-29T15:17:18;825.47;;;776.80;;